Time;durP1;ratioP1;P1;durP2;ratioP2;P2;SDS_P1;SDS_P2;PMS_P1;PMS_P2;Temp;Humidity;BMP_temperature;BMP_pressure;BME280_temperature;BME280_humidity;BME280_pressure;Samples;Min_cycle;Max_cycle;Signal;HPM_P1;HPM_P2
2021/09/23 00:00:41;;;;;;;46.97;29.23;;;12.10;1.00;;;;;;5031902;28;20210;-60
2021/09/23 00:03:20;;;;;;;46.93;29.70;;;12.10;1.00;;;;;;5031744;28;20895;-60
2021/09/23 00:05:47;;;;;;;46.07;29.00;;;12.10;1.00;;;;;;5031583;28;20210;-61
2021/09/23 00:08:14;;;;;;;45.03;28.20;;;12.10;1.00;;;;;;5031515;28;20272;-61
2021/09/23 00:10:42;;;;;;;43.53;28.07;;;12.00;1.00;;;;;;5031934;28;20260;-60
2021/09/23 00:13:10;;;;;;;48.57;27.90;;;12.10;1.00;;;;;;5031706;28;20222;-60
2021/09/23 00:15:38;;;;;;;49.10;29.80;;;12.10;99.90;;;;;;5031266;28;20210;-60
2021/09/23 00:18:10;;;;;;;50.73;30.63;;;12.00;99.90;;;;;;5031654;28;20226;-60
2021/09/23 00:20:38;;;;;;;47.23;29.13;;;12.00;99.90;;;;;;5031605;28;20211;-60
2021/09/23 00:23:06;;;;;;;45.33;29.17;;;11.90;1.00;;;;;;5031469;28;20252;-60
2021/09/23 00:25:33;;;;;;;45.10;29.90;;;11.90;1.00;;;;;;5031353;28;20203;-60
2021/09/23 00:28:00;;;;;;;47.33;30.10;;;11.90;1.00;;;;;;5031952;28;20230;-60
2021/09/23 00:30:28;;;;;;;46.07;29.83;;;11.90;1.00;;;;;;5031555;28;20210;-60
2021/09/23 00:32:56;;;;;;;45.80;30.80;;;11.80;99.90;;;;;;5031321;28;20223;-60
2021/09/23 00:35:23;;;;;;;45.97;30.53;;;11.70;9.70;;;;;;5031027;28;20268;-61
2021/09/23 00:37:50;;;;;;;42.43;29.07;;;11.70;99.90;;;;;;5031212;28;20234;-60
2021/09/23 00:40:18;;;;;;;46.87;30.43;;;11.70;99.90;;;;;;5031546;28;20202;-60
2021/09/23 00:42:47;;;;;;;50.90;31.70;;;11.60;1.00;;;;;;5031542;28;20206;-61
2021/09/23 00:45:16;;;;;;;46.47;31.13;;;11.60;1.00;;;;;;5034683;28;20581;-60
2021/09/23 00:47:44;;;;;;;46.27;29.10;;;11.60;99.90;;;;;;5034877;28;20230;-61
2021/09/23 00:50:12;;;;;;;45.57;29.90;;;11.50;99.90;;;;;;5034831;28;20206;-61
2021/09/23 00:52:40;;;;;;;49.90;30.40;;;11.50;99.90;;;;;;5035003;28;20237;-60
2021/09/23 00:55:08;;;;;;;47.53;29.50;;;11.50;99.90;;;;;;5034366;28;20742;-60
2021/09/23 00:57:35;;;;;;;45.97;28.47;;;11.50;1.00;;;;;;5035054;28;20648;-58
2021/09/23 01:00:02;;;;;;;45.47;27.57;;;11.40;99.90;;;;;;5034744;28;20202;-60
2021/09/23 01:02:28;;;;;;;40.57;27.57;;;11.50;1.00;;;;;;5034764;28;20210;-60
2021/09/23 01:04:56;;;;;;;43.57;27.63;;;11.40;75.60;;;;;;5034492;28;20210;-60
2021/09/23 01:07:23;;;;;;;43.33;28.63;;;11.40;99.90;;;;;;5034866;28;20226;-60
2021/09/23 01:09:52;;;;;;;45.47;27.23;;;11.40;99.90;;;;;;5035343;28;20202;-59
2021/09/23 01:12:20;;;;;;;42.30;26.10;;;11.40;99.90;;;;;;5035496;28;20218;-60
2021/09/23 01:14:48;;;;;;;38.37;25.23;;;11.40;99.90;;;;;;5034186;28;20675;-60
2021/09/23 01:17:15;;;;;;;36.60;25.13;;;11.40;99.90;;;;;;5034210;28;20226;-60
2021/09/23 01:19:44;;;;;;;39.57;24.40;;;11.40;99.90;;;;;;5034781;28;20206;-59
2021/09/23 01:22:14;;;;;;;33.33;23.07;;;11.50;99.90;;;;;;5034314;28;20663;-60
2021/09/23 01:24:42;;;;;;;36.30;23.47;;;11.60;99.90;;;;;;5034100;28;20252;-60
2021/09/23 01:27:10;;;;;;;40.30;24.57;;;11.60;1.00;;;;;;5034146;28;20286;-59
2021/09/23 01:29:41;;;;;;;37.87;22.90;;;11.60;1.00;;;;;;5034264;28;20206;-59
2021/09/23 01:32:09;;;;;;;33.80;22.93;;;11.70;99.90;;;;;;5034595;28;20237;-60
2021/09/23 01:34:36;;;;;;;32.97;23.00;;;11.70;1.00;;;;;;5034207;28;20206;-60
2021/09/23 01:37:03;;;;;;;33.90;23.73;;;11.70;1.00;;;;;;5034178;28;20234;-60
2021/09/23 01:39:31;;;;;;;39.50;23.13;;;11.70;99.90;;;;;;5034110;28;20206;-60
2021/09/23 01:41:58;;;;;;;32.17;23.03;;;11.60;99.90;;;;;;5034027;28;20206;-60
2021/09/23 01:44:25;;;;;;;30.20;22.47;;;11.60;1.00;;;;;;5033711;28;20206;-60
2021/09/23 01:46:52;;;;;;;34.73;23.13;;;11.50;1.00;;;;;;5033519;28;20579;-61
2021/09/23 01:49:19;;;;;;;33.60;23.73;;;11.50;1.00;;;;;;5033894;28;20214;-61
2021/09/23 01:51:46;;;;;;;32.53;22.73;;;11.50;99.90;;;;;;5033843;28;20275;-61
2021/09/23 01:54:13;;;;;;;31.97;22.13;;;11.40;1.00;;;;;;5033384;28;20259;-61
2021/09/23 01:56:41;;;;;;;33.03;22.80;;;11.40;1.00;;;;;;5032692;28;20289;-60
2021/09/23 01:59:07;;;;;;;31.50;21.20;;;11.30;1.00;;;;;;5033624;28;20214;-60
2021/09/23 02:01:34;;;;;;;30.93;20.47;;;11.30;1.00;;;;;;5034048;28;20252;-60
2021/09/23 02:04:01;;;;;;;30.03;20.90;;;11.30;22.00;;;;;;5033745;28;20218;-60
2021/09/23 02:06:28;;;;;;;29.57;20.93;;;11.30;8.30;;;;;;5033352;28;20616;-59
2021/09/23 02:08:55;;;;;;;31.60;21.47;;;11.30;99.90;;;;;;5033538;28;20206;-60
2021/09/23 02:11:22;;;;;;;29.40;20.17;;;11.20;1.00;;;;;;5034074;28;20240;-59
2021/09/23 02:13:50;;;;;;;28.00;19.23;;;11.30;93.30;;;;;;5033389;28;20733;-60
2021/09/23 02:16:16;;;;;;;30.63;19.20;;;11.30;99.90;;;;;;5033748;28;20340;-60
2021/09/23 02:18:43;;;;;;;30.87;18.33;;;11.20;1.00;;;;;;5033497;28;20234;-60
2021/09/23 02:21:10;;;;;;;26.87;17.93;;;11.30;1.00;;;;;;5033499;28;20210;-60
2021/09/23 02:23:37;;;;;;;24.47;18.30;;;11.30;1.00;;;;;;5033281;28;20260;-61
2021/09/23 02:26:03;;;;;;;25.07;17.30;;;11.30;1.00;;;;;;5032671;28;20558;-60
2021/09/23 02:28:30;;;;;;;24.80;18.23;;;11.30;99.90;;;;;;5033215;28;20230;-60
2021/09/23 02:30:58;;;;;;;24.13;16.83;;;11.20;1.00;;;;;;5033142;28;20233;-60
2021/09/23 02:33:25;;;;;;;26.50;18.13;;;11.20;49.80;;;;;;5033059;28;20574;-60
2021/09/23 02:35:52;;;;;;;27.87;17.53;;;11.20;35.40;;;;;;5032397;28;20745;-60
2021/09/23 02:38:18;;;;;;;28.30;17.77;;;11.20;25.10;;;;;;5032806;28;20279;-60
2021/09/23 02:40:46;;;;;;;30.73;17.57;;;11.30;1.00;;;;;;5032953;28;20210;-61
2021/09/23 02:43:13;;;;;;;27.93;19.33;;;11.30;99.90;;;;;;5032987;28;20202;-60
2021/09/23 02:45:40;;;;;;;23.13;17.67;;;11.20;99.90;;;;;;5032614;28;20257;-60
2021/09/23 02:48:08;;;;;;;25.60;18.27;;;11.10;1.00;;;;;;5032677;28;20284;-60
2021/09/23 02:50:34;;;;;;;26.00;18.30;;;11.10;99.90;;;;;;5032736;28;20210;-61
2021/09/23 02:53:01;;;;;;;23.77;17.73;;;11.00;12.50;;;;;;5032581;28;20226;-60
2021/09/23 02:55:28;;;;;;;25.87;16.93;;;10.90;99.90;;;;;;5032544;28;20618;-61
2021/09/23 02:57:54;;;;;;;24.80;17.23;;;10.90;99.90;;;;;;5032287;28;20788;-60
2021/09/23 03:00:21;;;;;;;27.43;17.23;;;10.90;1.00;;;;;;5032593;28;20204;-60
2021/09/23 03:02:48;;;;;;;23.37;17.20;;;10.90;1.00;;;;;;5032472;28;20631;-60
2021/09/23 03:05:16;;;;;;;25.13;16.77;;;10.90;99.50;;;;;;5031997;28;20674;-60
2021/09/23 03:07:42;;;;;;;22.40;16.13;;;10.90;99.90;;;;;;5031995;28;20235;-60
2021/09/23 03:10:10;;;;;;;23.57;16.63;;;10.90;99.90;;;;;;5032546;28;20213;-60
2021/09/23 03:12:37;;;;;;;22.83;16.47;;;10.90;99.90;;;;;;5032397;28;20639;-60
2021/09/23 03:15:04;;;;;;;24.37;16.13;;;10.90;99.90;;;;;;5031768;28;20225;-60
2021/09/23 03:17:30;;;;;;;20.97;15.80;;;10.90;99.90;;;;;;5032280;28;20232;-60
2021/09/23 03:19:57;;;;;;;25.27;16.13;;;10.90;99.90;;;;;;5032157;28;20213;-60
2021/09/23 03:22:27;;;;;;;24.37;15.83;;;11.00;99.90;;;;;;5032073;28;20213;-60
2021/09/23 03:24:53;;;;;;;21.93;15.57;;;11.00;99.90;;;;;;5032042;28;20217;-60
2021/09/23 03:27:21;;;;;;;20.07;15.13;;;11.10;99.90;;;;;;5032053;28;20226;-60
2021/09/23 03:29:48;;;;;;;21.47;14.77;;;11.10;99.90;;;;;;5032176;28;20244;-60
2021/09/23 03:32:14;;;;;;;23.00;14.57;;;11.10;99.90;;;;;;5032069;28;20206;-59
2021/09/23 03:34:41;;;;;;;19.60;14.20;;;11.10;99.90;;;;;;5031627;28;20222;-60
2021/09/23 03:37:08;;;;;;;20.97;14.40;;;11.20;99.90;;;;;;5031763;28;20238;-60
2021/09/23 03:39:36;;;;;;;25.50;14.73;;;11.20;99.00;;;;;;5032109;28;20740;-60
2021/09/23 03:42:03;;;;;;;20.20;14.37;;;11.30;32.80;;;;;;5032053;28;20604;-60
2021/09/23 03:44:30;;;;;;;19.53;14.73;;;11.30;14.40;;;;;;5031761;28;20206;-59
2021/09/23 03:46:57;;;;;;;30.03;18.97;;;11.30;1.00;;;;;;5031620;28;20259;-60
2021/09/23 03:49:24;;;;;;;22.00;15.80;;;11.30;1.00;;;;;;5031742;28;20232;-59
2021/09/23 03:51:51;;;;;;;22.43;15.60;;;11.30;1.00;;;;;;5032021;28;20209;-60
2021/09/23 03:54:18;;;;;;;20.20;15.03;;;11.30;1.00;;;;;;5031861;28;20234;-60
2021/09/23 03:56:46;;;;;;;21.03;15.93;;;11.30;1.00;;;;;;5031381;28;20234;-60
2021/09/23 03:59:13;;;;;;;20.67;15.27;;;11.30;1.00;;;;;;5031777;28;20267;-60
2021/09/23 04:01:39;;;;;;;22.93;14.77;;;11.30;1.00;;;;;;5031826;28;20256;-60
2021/09/23 04:04:06;;;;;;;20.33;15.07;;;11.30;14.00;;;;;;5031685;28;20213;-60
2021/09/23 04:06:36;;;;;;;22.40;15.07;;;11.30;56.30;;;;;;5031382;28;20206;-59
2021/09/23 04:09:03;;;;;;;20.50;14.87;;;11.20;67.40;;;;;;5031879;28;20294;-59
2021/09/23 04:11:29;;;;;;;20.63;14.77;;;11.20;99.90;;;;;;5031590;28;20674;-60
2021/09/23 04:13:57;;;;;;;21.57;15.00;;;11.20;99.90;;;;;;5011593;28;20288;-60
2021/09/23 04:16:24;;;;;;;20.13;14.97;;;11.20;99.90;;;;;;5011173;28;20265;-60
2021/09/23 04:18:51;;;;;;;21.93;14.80;;;11.30;99.90;;;;;;5013872;28;20273;-66
2021/09/23 04:21:17;;;;;;;18.13;14.13;;;11.30;99.90;;;;;;5015954;28;20211;-62
2021/09/23 04:23:44;;;;;;;19.47;14.63;;;11.30;92.00;;;;;;5015821;28;20630;-62
2021/09/23 04:26:10;;;;;;;19.37;14.53;;;11.30;99.90;;;;;;5015611;28;20749;-61
2021/09/23 04:28:37;;;;;;;20.57;14.47;;;11.20;91.80;;;;;;5015632;28;20285;-61
2021/09/23 04:31:05;;;;;;;21.43;14.43;;;11.20;69.70;;;;;;5015605;28;20289;-63
2021/09/23 04:33:32;;;;;;;18.90;14.17;;;11.30;97.10;;;;;;5015731;28;20277;-62
2021/09/23 04:35:58;;;;;;;19.47;14.13;;;11.20;81.50;;;;;;5014907;28;20798;-62
2021/09/23 04:38:25;;;;;;;21.43;14.97;;;11.20;48.80;;;;;;5015410;28;20266;-61
2021/09/23 04:40:53;;;;;;;18.17;13.60;;;11.20;14.40;;;;;;5015194;28;20278;-62
2021/09/23 04:43:21;;;;;;;19.40;14.27;;;11.30;1.00;;;;;;5015410;28;20207;-61
2021/09/23 04:45:48;;;;;;;19.00;14.13;;;11.30;1.00;;;;;;5014664;28;20273;-61
2021/09/23 04:48:16;;;;;;;21.70;13.93;;;11.20;1.00;;;;;;5015665;28;20255;-62
2021/09/23 04:50:42;;;;;;;19.50;14.07;;;11.20;1.00;;;;;;5015121;28;20203;-62
2021/09/23 04:53:09;;;;;;;19.63;13.57;;;11.20;1.00;;;;;;5014884;28;20691;-61
2021/09/23 04:55:36;;;;;;;19.60;13.70;;;11.20;1.00;;;;;;5014514;28;20257;-62
2021/09/23 04:58:04;;;;;;;18.80;13.73;;;11.30;1.00;;;;;;5014600;28;20246;-62
2021/09/23 05:00:31;;;;;;;20.73;13.30;;;11.20;1.00;;;;;;5015108;28;20210;-62
2021/09/23 05:02:58;;;;;;;17.87;13.20;;;11.20;1.00;;;;;;5014752;28;20207;-61
2021/09/23 05:05:27;;;;;;;17.10;12.83;;;11.10;1.00;;;;;;5014792;28;20206;-62
2021/09/23 05:07:54;;;;;;;16.83;12.23;;;11.20;14.30;;;;;;5014647;28;20231;-61
2021/09/23 05:10:20;;;;;;;20.10;13.33;;;11.20;6.50;;;;;;5015035;28;20215;-62
2021/09/23 05:12:47;;;;;;;19.17;12.43;;;11.20;1.00;;;;;;5014735;28;20648;-62
2021/09/23 05:15:14;;;;;;;16.50;11.93;;;11.20;1.00;;;;;;5014643;28;20227;-61
2021/09/23 05:17:41;;;;;;;15.13;12.10;;;11.30;1.00;;;;;;5014910;28;20231;-62
2021/09/23 05:20:09;;;;;;;15.80;11.60;;;11.30;1.00;;;;;;5014742;28;20206;-61
2021/09/23 05:22:38;;;;;;;17.93;11.93;;;11.30;99.90;;;;;;5014624;28;20203;-61
2021/09/23 05:25:05;;;;;;;16.03;12.20;;;11.40;99.90;;;;;;5012781;28;20218;-61
2021/09/23 05:27:32;;;;;;;17.87;12.70;;;11.40;99.90;;;;;;5013408;28;20656;-61
2021/09/23 05:30:00;;;;;;;19.97;12.37;;;11.40;1.30;;;;;;5013559;28;20253;-61
2021/09/23 05:32:26;;;;;;;19.50;12.53;;;11.40;1.00;;;;;;5014744;28;20626;-62
2021/09/23 05:34:53;;;;;;;17.67;11.97;;;11.40;1.00;;;;;;5014105;28;20223;-61
2021/09/23 05:37:20;;;;;;;17.27;11.97;;;11.40;99.90;;;;;;5014501;28;20223;-61
2021/09/23 05:39:48;;;;;;;23.07;12.10;;;11.50;99.90;;;;;;5014306;28;20217;-61
2021/09/23 05:42:15;;;;;;;15.10;11.07;;;11.50;79.60;;;;;;5014477;28;20630;-61
2021/09/23 05:44:41;;;;;;;17.07;12.70;;;11.50;36.60;;;;;;5014006;28;20738;-62
2021/09/23 05:47:08;;;;;;;18.03;12.53;;;11.50;1.00;;;;;;5014282;28;20264;-62
2021/09/23 05:49:35;;;;;;;16.23;11.43;;;11.50;99.90;;;;;;5014182;28;20207;-62
2021/09/23 05:52:02;;;;;;;17.50;11.47;;;11.50;99.90;;;;;;5014119;28;20626;-62
2021/09/23 05:54:29;;;;;;;14.67;10.97;;;11.50;1.00;;;;;;5013943;28;20219;-61
2021/09/23 05:56:57;;;;;;;17.60;11.70;;;11.50;99.90;;;;;;5013861;28;20231;-62
2021/09/23 05:59:26;;;;;;;17.17;12.20;;;11.50;99.90;;;;;;5014222;28;20567;-62
2021/09/23 06:01:54;;;;;;;18.53;10.27;;;11.50;99.90;;;;;;5014173;28;20237;-61
2021/09/23 06:04:21;;;;;;;13.87;10.07;;;11.60;80.90;;;;;;5013927;28;20214;-62
2021/09/23 06:06:48;;;;;;;15.90;11.27;;;11.60;99.90;;;;;;5013440;28;20653;-61
2021/09/23 06:09:15;;;;;;;15.53;11.40;;;11.70;99.90;;;;;;5013822;28;20766;-61
2021/09/23 06:11:42;;;;;;;15.50;10.77;;;11.70;1.00;;;;;;5013933;28;20214;-61
2021/09/23 06:14:10;;;;;;;18.53;10.87;;;11.70;1.00;;;;;;5014539;28;20289;-61
2021/09/23 06:16:37;;;;;;;13.67;10.30;;;11.80;99.90;;;;;;5013693;28;20363;-62
2021/09/23 06:19:04;;;;;;;15.93;9.90;;;11.80;1.00;;;;;;5013751;28;20211;-62
2021/09/23 06:21:31;;;;;;;16.50;10.73;;;11.90;1.00;;;;;;5013553;28;20237;-62
2021/09/23 06:23:57;;;;;;;14.50;9.77;;;11.90;99.90;;;;;;5013634;28;20671;-60
2021/09/23 06:26:24;;;;;;;20.60;10.43;;;12.00;95.90;;;;;;5013388;28;20216;-61
2021/09/23 06:28:51;;;;;;;15.33;9.93;;;12.00;38.00;;;;;;5013327;28;20742;-62
2021/09/23 06:31:19;;;;;;;13.27;9.50;;;12.10;1.00;;;;;;5013599;28;20264;-61
2021/09/23 06:33:46;;;;;;;11.93;9.07;;;12.10;1.00;;;;;;5013411;28;20257;-62
2021/09/23 06:36:12;;;;;;;16.10;9.70;;;12.10;1.00;;;;;;5012799;28;20221;-62
2021/09/23 06:38:39;;;;;;;16.07;9.53;;;12.10;1.00;;;;;;5013320;28;20227;-61
2021/09/23 06:41:06;;;;;;;15.20;9.60;;;12.10;99.90;;;;;;5012852;28;20631;-61
2021/09/23 06:43:33;;;;;;;13.37;8.67;;;12.10;99.90;;;;;;5013282;28;20675;-61
2021/09/23 06:45:59;;;;;;;12.53;9.00;;;12.20;33.30;;;;;;5012952;28;20210;-61
2021/09/23 06:48:27;;;;;;;12.60;9.10;;;12.30;99.90;;;;;;5012841;28;20231;-61
2021/09/23 06:50:54;;;;;;;11.63;9.00;;;12.30;1.00;;;;;;5012995;28;20235;-61
2021/09/23 06:53:21;;;;;;;13.43;8.70;;;12.40;99.90;;;;;;5013426;28;20207;-61
2021/09/23 06:55:48;;;;;;;13.00;8.67;;;12.50;1.00;;;;;;5012664;28;20231;-61
2021/09/23 06:58:15;;;;;;;13.50;8.80;;;12.60;99.90;;;;;;5012803;28;20243;-61
2021/09/23 07:00:41;;;;;;;12.83;8.80;;;12.70;99.90;;;;;;5012956;28;20242;-61
2021/09/23 07:03:08;;;;;;;13.83;8.97;;;12.80;99.90;;;;;;5012814;28;20253;-61
2021/09/23 07:05:36;;;;;;;17.43;9.33;;;12.90;99.90;;;;;;5012525;28;20263;-62
2021/09/23 07:08:03;;;;;;;16.37;9.43;;;13.10;99.90;;;;;;5012934;28;20642;-61
2021/09/23 07:10:29;;;;;;;12.97;9.03;;;13.20;58.60;;;;;;5012842;28;20287;-63
2021/09/23 07:12:56;;;;;;;11.60;8.83;;;13.30;99.90;;;;;;5012793;28;20259;-61
2021/09/23 07:15:23;;;;;;;17.83;9.77;;;13.40;99.90;;;;;;5012290;28;20229;-61
2021/09/23 07:17:49;;;;;;;16.27;9.13;;;13.50;1.00;;;;;;5012443;28;20233;-62
2021/09/23 07:20:16;;;;;;;13.43;9.23;;;13.60;1.00;;;;;;5012581;28;20678;-62
2021/09/23 07:22:44;;;;;;;12.83;8.90;;;13.70;1.00;;;;;;5012744;28;20213;-61
2021/09/23 07:25:11;;;;;;;12.60;9.10;;;13.80;1.00;;;;;;5012276;28;20728;-62
2021/09/23 07:27:38;;;;;;;20.53;10.17;;;13.90;99.90;;;;;;5012663;28;20711;-61
2021/09/23 07:30:06;;;;;;;13.60;9.80;;;14.10;99.90;;;;;;5012463;28;20236;-62
2021/09/23 07:32:33;;;;;;;16.77;9.00;;;14.20;99.90;;;;;;5012569;28;20265;-62
2021/09/23 07:34:59;;;;;;;10.87;8.53;;;14.30;99.90;;;;;;5012259;28;20246;-62
2021/09/23 07:37:26;;;;;;;11.57;9.03;;;14.30;99.90;;;;;;5012229;28;20651;-62
2021/09/23 07:39:54;;;;;;;13.37;8.33;;;14.40;99.90;;;;;;5012476;28;20210;-62
2021/09/23 07:42:21;;;;;;;13.80;8.47;;;14.40;55.10;;;;;;5012435;28;20234;-62
2021/09/23 07:44:48;;;;;;;11.33;8.20;;;14.50;71.10;;;;;;5011693;28;20626;-62
2021/09/23 07:47:15;;;;;;;14.40;8.57;;;14.60;65.90;;;;;;5012557;28;20230;-62
2021/09/23 07:49:41;;;;;;;15.47;8.97;;;14.60;6.40;;;;;;5012226;28;20214;-61
2021/09/23 07:52:08;;;;;;;16.43;8.90;;;14.70;6.90;;;;;;5012440;28;20285;-61
2021/09/23 07:54:35;;;;;;;13.83;8.37;;;14.70;1.00;;;;;;5015176;28;20269;-60
2021/09/23 07:57:03;;;;;;;12.50;8.90;;;14.80;1.00;;;;;;5016303;28;20874;-62
2021/09/23 07:59:30;;;;;;;12.63;9.13;;;14.90;1.00;;;;;;5016107;28;20664;-61
2021/09/23 08:01:56;;;;;;;12.30;8.60;;;14.90;1.00;;;;;;5016496;28;20558;-62
2021/09/23 08:04:23;;;;;;;12.17;9.00;;;15.00;1.00;;;;;;5016350;28;20261;-62
2021/09/23 08:06:50;;;;;;;20.77;9.70;;;15.10;1.00;;;;;;5015873;28;20298;-61
2021/09/23 08:09:17;;;;;;;15.93;9.23;;;15.20;1.00;;;;;;5016330;28;20671;-62
2021/09/23 08:11:43;;;;;;;12.43;8.77;;;15.20;1.00;;;;;;5016144;28;20268;-62
2021/09/23 08:14:11;;;;;;;10.50;8.60;;;15.20;1.00;;;;;;5015863;28;20305;-61
2021/09/23 08:16:38;;;;;;;10.80;8.27;;;15.20;1.00;;;;;;5015806;28;20296;-62
2021/09/23 08:19:05;;;;;;;13.43;9.07;;;15.20;1.00;;;;;;5016215;28;20219;-61
2021/09/23 08:21:32;;;;;;;12.50;8.80;;;15.30;1.00;;;;;;5016037;28;20211;-62
2021/09/23 08:23:58;;;;;;;13.70;9.43;;;15.40;1.00;;;;;;5016073;28;20202;-61
2021/09/23 08:26:25;;;;;;;12.80;9.40;;;15.40;1.00;;;;;;5015325;28;20635;-61
2021/09/23 08:28:52;;;;;;;13.60;9.03;;;15.50;1.00;;;;;;5016062;28;20295;-62
2021/09/23 08:31:21;;;;;;;13.83;9.07;;;15.60;1.00;;;;;;5015911;28;20215;-62
2021/09/23 08:33:48;;;;;;;15.97;9.53;;;15.60;1.00;;;;;;5015777;28;20624;-62
2021/09/23 08:36:15;;;;;;;16.10;9.27;;;15.70;1.00;;;;;;5015389;28;20230;-62
2021/09/23 08:38:42;;;;;;;11.23;8.37;;;15.70;1.00;;;;;;5015200;28;20261;-62
2021/09/23 08:41:09;;;;;;;14.10;8.77;;;15.80;1.00;;;;;;5015637;28;20214;-61
2021/09/23 08:43:36;;;;;;;16.77;9.03;;;15.90;1.00;;;;;;5015685;28;20210;-62
2021/09/23 08:46:04;;;;;;;12.27;8.57;;;16.00;1.00;;;;;;5015280;28;20199;-62
2021/09/23 08:48:33;;;;;;;12.70;8.43;;;16.10;1.00;;;;;;5015254;28;20227;-61
2021/09/23 08:51:00;;;;;;;19.60;8.90;;;16.10;1.00;;;;;;5015444;28;20211;-62
2021/09/23 08:53:27;;;;;;;14.57;8.83;;;16.30;1.00;;;;;;5015244;28;20207;-62
2021/09/23 08:55:55;;;;;;;12.20;7.77;;;16.30;1.00;;;;;;5014988;28;20742;-61
2021/09/23 08:58:24;;;;;;;14.00;8.33;;;16.40;1.00;;;;;;5015227;28;20238;-62
2021/09/23 09:01:06;;;;;;;14.27;8.20;;;16.50;1.00;;;;;;5015577;28;20555;-62
2021/09/23 09:03:36;;;;;;;9.90;7.70;;;16.60;1.00;;;;;;5015045;28;20210;-62
2021/09/23 09:06:05;;;;;;;11.77;7.67;;;16.70;1.00;;;;;;5014549;28;20207;-61
2021/09/23 09:08:33;;;;;;;14.13;7.40;;;16.70;1.00;;;;;;5015461;28;20254;-62
2021/09/23 09:11:01;;;;;;;14.33;7.07;;;16.80;1.00;;;;;;5015263;28;20217;-62
2021/09/23 09:13:33;;;;;;;10.87;6.30;;;16.70;1.00;;;;;;5015178;28;20676;-61
2021/09/23 09:16:07;;;;;;;10.27;6.20;;;16.80;1.00;;;;;;5014673;28;20317;-61
2021/09/23 09:18:36;;;;;;;11.70;5.83;;;16.90;1.00;;;;;;5014932;28;20323;-62
2021/09/23 09:21:07;;;;;;;11.03;6.70;;;17.10;1.00;;;;;;5014724;28;20211;-62
2021/09/23 09:23:40;;;;;;;11.70;6.10;;;17.20;1.00;;;;;;5015106;28;20312;-62
2021/09/23 09:26:08;;;;;;;10.17;6.17;;;17.30;1.00;;;;;;5014526;28;20572;-61
2021/09/23 09:28:46;;;;;;;12.93;6.23;;;17.30;1.00;;;;;;5014911;28;20235;-61
2021/09/23 09:31:12;;;;;;;9.73;5.50;;;17.30;1.00;;;;;;5014473;28;20207;-61
2021/09/23 09:33:42;;;;;;;10.97;6.20;;;17.40;1.00;;;;;;5014924;28;20207;-62
2021/09/23 09:36:25;;;;;;;8.23;5.50;;;17.50;1.00;;;;;;5014355;28;20226;-62
2021/09/23 09:38:51;;;;;;;7.43;5.30;;;17.60;1.00;;;;;;5014925;28;20273;-63
2021/09/23 09:41:23;;;;;;;10.90;5.80;;;17.80;1.00;;;;;;5014915;28;20203;-62
2021/09/23 09:43:50;;;;;;;7.43;6.00;;;17.80;1.00;;;;;;5014906;28;20865;-63
2021/09/23 09:46:24;;;;;;;10.97;5.70;;;17.70;1.00;;;;;;5014530;28;20207;-60
2021/09/23 09:48:54;;;;;;;11.23;5.80;;;17.80;1.00;;;;;;5014555;28;20210;-61
2021/09/23 09:51:23;;;;;;;11.37;5.07;;;17.90;1.00;;;;;;5014118;28;20233;-61
2021/09/23 09:53:59;;;;;;;12.60;5.37;;;18.00;1.00;;;;;;5014104;28;20211;-57
2021/09/23 09:56:26;;;;;;;10.17;5.03;;;18.10;1.00;;;;;;5013567;28;20227;-59
2021/09/23 09:59:07;;;;;;;9.77;5.37;;;18.30;1.00;;;;;;5013989;28;20207;-60
2021/09/23 10:01:34;;;;;;;12.93;6.07;;;18.40;1.00;;;;;;5013843;28;20580;-63
2021/09/23 10:04:02;;;;;;;9.67;5.93;;;18.40;1.00;;;;;;5013815;28;20273;-59
2021/09/23 10:06:30;;;;;;;8.80;5.87;;;18.50;1.00;;;;;;5013187;28;20584;-62
2021/09/23 10:08:57;;;;;;;10.70;5.97;;;18.60;1.00;;;;;;5014075;28;20261;-60
2021/09/23 10:11:24;;;;;;;10.87;6.17;;;18.70;99.90;;;;;;5014476;28;20727;-63
2021/09/23 10:13:51;;;;;;;11.67;7.03;;;18.90;1.00;;;;;;5014207;28;20207;-62
2021/09/23 10:16:18;;;;;;;10.57;7.20;;;18.80;99.90;;;;;;5012856;28;20288;-60
2021/09/23 10:18:45;;;;;;;9.03;6.07;;;18.80;99.90;;;;;;5013497;28;20226;-60
2021/09/23 10:21:13;;;;;;;14.00;5.80;;;18.80;99.90;;;;;;5013445;28;20214;-61
2021/09/23 10:23:40;;;;;;;9.97;6.17;;;18.80;99.90;;;;;;5013399;28;20211;-61
2021/09/23 10:26:09;;;;;;;11.13;5.73;;;18.80;99.90;;;;;;5013162;28;20206;-58
2021/09/23 10:28:37;;;;;;;13.90;5.70;;;18.70;99.90;;;;;;5013322;28;20284;-62
2021/09/23 10:31:09;;;;;;;8.80;5.27;;;18.70;99.90;;;;;;5013250;28;20203;-60
2021/09/23 10:33:35;;;;;;;8.23;5.23;;;18.80;99.90;;;;;;5013337;28;20218;-60
2021/09/23 10:36:02;;;;;;;11.63;5.50;;;18.80;99.90;;;;;;5013017;28;20226;-61
2021/09/23 10:38:31;;;;;;;9.17;4.77;;;18.80;99.90;;;;;;5013512;28;20227;-59
2021/09/23 10:40:58;;;;;;;9.20;4.60;;;18.80;99.90;;;;;;5013444;28;20676;-60
2021/09/23 10:43:25;;;;;;;7.47;4.33;;;18.80;99.90;;;;;;5013488;28;20210;-58
2021/09/23 10:45:53;;;;;;;9.53;4.70;;;18.90;99.90;;;;;;5012654;28;20669;-60
2021/09/23 10:48:21;;;;;;;8.63;4.70;;;19.10;99.90;;;;;;5013713;28;20230;-62
2021/09/23 10:50:49;;;;;;;5.77;4.30;;;19.10;99.90;;;;;;5013924;28;20828;-61
2021/09/23 10:53:16;;;;;;;11.20;5.20;;;19.20;99.90;;;;;;5013279;28;20318;-63
2021/09/23 10:55:45;;;;;;;7.13;5.03;;;19.30;99.90;;;;;;5013061;28;20273;-62
2021/09/23 10:58:16;;;;;;;9.20;5.03;;;19.20;99.90;;;;;;5012961;28;20242;-62
2021/09/23 11:00:42;;;;;;;6.90;5.20;;;19.20;99.90;;;;;;5013003;28;20269;-63
2021/09/23 11:03:12;;;;;;;10.70;5.50;;;19.10;99.90;;;;;;5013235;28;20210;-63
2021/09/23 11:05:42;;;;;;;9.93;5.17;;;19.20;99.90;;;;;;5012556;28;20222;-63
2021/09/23 11:08:12;;;;;;;12.13;5.23;;;19.30;99.90;;;;;;5012858;28;20273;-63
2021/09/23 11:10:41;;;;;;;8.73;5.00;;;19.50;99.90;;;;;;5012798;28;20215;-63
2021/09/23 11:13:11;;;;;;;12.23;6.00;;;19.70;99.90;;;;;;5012549;28;20636;-62
2021/09/23 11:15:40;;;;;;;8.83;5.90;;;19.60;99.90;;;;;;5012404;28;20227;-62
2021/09/23 11:18:09;;;;;;;7.70;5.73;;;19.60;99.90;;;;;;5012595;28;20231;-63
2021/09/23 11:20:38;;;;;;;10.87;6.40;;;19.70;99.90;;;;;;5012633;28;20210;-63
2021/09/23 11:23:06;;;;;;;10.87;6.43;;;19.70;99.90;;;;;;5012648;28;20261;-62
2021/09/23 11:25:36;;;;;;;26.37;7.53;;;19.60;99.90;;;;;;5012108;28;20269;-62
2021/09/23 11:28:04;;;;;;;20.03;10.67;;;19.60;99.90;;;;;;5012645;28;20258;-61
2021/09/23 11:30:34;;;;;;;9.50;6.37;;;19.50;99.90;;;;;;5012438;28;20210;-62
2021/09/23 11:33:04;;;;;;;8.27;5.40;;;19.60;99.90;;;;;;5012455;28;20741;-62
2021/09/23 11:35:34;;;;;;;10.20;5.93;;;19.80;99.90;;;;;;5012041;28;20219;-62
2021/09/23 11:38:01;;;;;;;8.83;5.17;;;19.80;99.90;;;;;;5012180;28;20711;-62
2021/09/23 11:40:30;;;;;;;9.50;5.73;;;19.70;99.90;;;;;;5012399;28;20229;-63
2021/09/23 11:42:57;;;;;;;11.03;5.73;;;19.80;99.90;;;;;;5012472;28;20211;-63
2021/09/23 11:45:26;;;;;;;10.93;6.33;;;19.70;99.90;;;;;;5011694;28;20743;-62
2021/09/23 11:47:57;;;;;;;9.03;5.30;;;19.80;99.90;;;;;;5012209;28;20234;-62
2021/09/23 11:50:27;;;;;;;11.80;5.87;;;19.90;99.90;;;;;;5011908;28;20207;-62
2021/09/23 11:52:57;;;;;;;8.03;4.43;;;20.00;99.90;;;;;;5011988;28;20215;-63
2021/09/23 11:55:24;;;;;;;10.10;4.87;;;20.20;99.90;;;;;;5011769;28;20207;-63
2021/09/23 11:58:02;;;;;;;8.87;4.70;;;20.10;99.90;;;;;;5011857;28;20285;-63
2021/09/23 12:00:38;;;;;;;9.73;5.23;;;20.10;99.90;;;;;;5012046;28;20206;-63
2021/09/23 12:03:06;;;;;;;6.37;4.77;;;20.30;99.90;;;;;;5011934;28;20211;-61
2021/09/23 12:05:33;;;;;;;9.63;5.83;;;20.50;99.90;;;;;;5011989;28;20207;-62
2021/09/23 12:08:09;;;;;;;8.77;5.90;;;20.60;99.90;;;;;;5012080;28;20281;-62
2021/09/23 12:10:47;;;;;;;11.00;6.70;;;20.40;99.90;;;;;;5012187;28;20245;-61
2021/09/23 12:13:21;;;;;;;12.50;5.90;;;20.20;99.90;;;;;;5012018;28;20214;-62
2021/09/23 12:15:52;;;;;;;16.57;6.00;;;20.20;99.90;;;;;;5011556;28;20238;-62
2021/09/23 12:18:22;;;;;;;7.53;5.70;;;20.30;99.90;;;;;;5011939;28;20231;-62
2021/09/23 12:20:51;;;;;;;11.83;6.50;;;20.30;99.90;;;;;;5012005;28;20271;-63
2021/09/23 12:23:20;;;;;;;10.17;5.37;;;20.30;99.90;;;;;;5011852;28;20632;-62
2021/09/23 12:26:18;;;;;;;10.63;5.33;;;20.30;99.90;;;;;;5011633;28;20269;-63
2021/09/23 12:28:48;;;;;;;12.40;5.33;;;20.60;99.90;;;;;;5011858;28;20235;-63
2021/09/23 12:31:17;;;;;;;12.37;5.87;;;20.70;99.90;;;;;;5012076;28;20578;-63
2021/09/23 12:33:54;;;;;;;14.47;6.17;;;20.70;99.90;;;;;;5011764;28;20207;-60
2021/09/23 12:36:27;;;;;;;7.60;5.53;;;20.40;99.90;;;;;;5011326;28;20231;-63
2021/09/23 12:39:05;;;;;;;11.20;8.67;;;20.60;99.90;;;;;;5012045;28;20257;-63
2021/09/23 12:41:32;;;;;;;8.93;5.60;;;20.60;99.90;;;;;;5015446;28;20210;-62